Portada
METAR-TAF:

METAR-TAF

Aeroports :

Yap, Micronèsia

latitud: 09-29N, longitud: 138-05E, altitud: 28 m

Observació

L'informe es va fer fa 36 minuts, a les 23:50 UTC
Vent 6 kt amb direcció variable
Temperatura 30°C
Humitat 75%
Pressió 1012 hPa
Visibilitat: 19.3 km
Escasses núvols a una alçada de 1600 ft
Núvols disperses a una alçada de 13000 ft
Cel ennuvolat a una alçada de 30000 ft

METAR: PTYA 202350Z VRB06KT 12SM FEW016 SCT130 BKN300 30/25 A2987 RMK SLP117 60022 8/171 T02990253 10299 20246 52012

Hora: 10:26 (00:26 UTC)

Pronòstic

L'informe es va fer fa 59 minuts, a les 23:27 UTC
Pronòstic vàlid del 21 a les 00 UTC al 21 a les 24 UTC
Vent 10 kt del Nord-Oest
Visibilitat: 10 km
Núvols disperses a una alçada de 1600 ft
Cel ennuvolat a una alçada de 13000 ft
xàfecs en les proximitats

TAF: PTYA 202327Z 2100/2124 31010KT P6SM VCSH SCT016 BKN130

Observacions i pronòstics meteorològics de més de 4000 aeroports (METAR i TAF).

Les estacions disponibles són els punts grocs i vermells al mapa.

Posi el ratolí al punt desitjat per veure el nom de l'estació.

Feu clic per veure les observacions i els pronòstics meteorològics.

Per canviar el mapa: feu clic els botons verds amb una creu de color negre per apropar; al botó verd amb un guió per allunyar la imatge; o en les fletxes verdes per a mapes adjacents.


METAR-TAF: